createdAt,value
2022-09-23T00:01:08.920Z,97467.59
2022-09-23T00:03:37.511Z,97464.69
2022-09-23T00:06:10.981Z,97456.63
2022-09-23T00:08:37.956Z,97456.41
2022-09-23T00:11:10.906Z,97463.47
2022-09-23T00:13:38.979Z,97461.53
2022-09-23T00:16:24.224Z,97452.63
2022-09-23T00:18:50.967Z,97461.00
2022-09-23T00:21:19.069Z,97451.03
2022-09-23T00:23:45.804Z,97451.59
2022-09-23T00:26:16.502Z,97453.22
2022-09-23T00:28:43.898Z,97451.84
2022-09-23T00:31:17.312Z,97450.31
2022-09-23T00:33:44.465Z,97459.25
2022-09-23T00:36:16.441Z,97448.78
2022-09-23T00:38:46.198Z,97451.53
2022-09-23T00:41:16.160Z,97452.34
2022-09-23T00:43:49.849Z,97456.94
2022-09-23T00:46:25.279Z,97456.38
2022-09-23T00:48:58.645Z,97454.22
2022-09-23T00:51:31.661Z,97446.31
2022-09-23T00:53:58.753Z,97446.28
2022-09-23T00:56:25.637Z,97444.91
2022-09-23T00:58:53.915Z,97451.41
2022-09-23T01:01:21.508Z,97443.34
2022-09-23T01:03:49.533Z,97449.84
2022-09-23T01:06:16.369Z,97453.66
2022-09-23T01:08:46.037Z,97459.88
2022-09-23T01:11:43.210Z,97450.19
2022-09-23T01:14:32.759Z,97461.25
2022-09-23T01:17:09.188Z,97458.31
2022-09-23T01:20:06.901Z,97464.22
2022-09-23T01:22:40.784Z,97459.69
2022-09-23T01:25:16.468Z,97464.00
2022-09-23T01:27:52.393Z,97471.34
2022-09-23T01:30:49.314Z,97471.38
2022-09-23T01:33:15.932Z,97465.19
2022-09-23T01:35:45.880Z,97468.72
2022-09-23T01:38:28.149Z,97464.66
2022-09-23T01:41:08.971Z,97475.72
2022-09-23T01:43:54.912Z,97469.78
2022-09-23T01:46:32.238Z,97468.69
2022-09-23T01:49:05.245Z,97470.06
2022-09-23T01:51:37.596Z,97466.03
2022-09-23T01:54:34.232Z,97474.41
2022-09-23T01:57:21.967Z,97470.63
2022-09-23T01:59:55.175Z,97469.53
2022-09-23T02:02:49.977Z,97474.94
2022-09-23T02:05:24.840Z,97474.94
2022-09-23T02:08:22.260Z,97479.00
2022-09-23T02:11:08.532Z,97481.41
2022-09-23T02:13:53.259Z,97479.84
2022-09-23T02:16:34.532Z,97477.66
2022-09-23T02:19:08.010Z,97476.06
2022-09-23T02:21:40.641Z,97476.63
2022-09-23T02:24:14.946Z,97483.06
2022-09-23T02:26:52.348Z,97470.66
2022-09-23T02:29:35.276Z,97473.38
2022-09-23T02:32:08.342Z,97471.78
2022-09-23T02:34:45.784Z,97477.19
2022-09-23T02:37:18.588Z,97479.34
2022-09-23T02:40:04.137Z,97480.44
2022-09-23T02:42:48.163Z,97488.00
2022-09-23T02:45:15.015Z,97484.47
2022-09-23T02:47:46.486Z,97478.81
2022-09-23T02:50:13.982Z,97483.66
2022-09-23T02:52:41.157Z,97482.59
2022-09-23T02:55:09.165Z,97487.97
2022-09-23T02:57:36.033Z,97480.41
2022-09-23T03:00:03.013Z,97483.91
2022-09-23T03:02:40.217Z,97478.81
2022-09-23T03:05:12.833Z,97476.38
2022-09-23T03:08:05.114Z,97480.94
2022-09-23T03:11:04.433Z,97491.19
2022-09-23T03:13:53.322Z,97480.94
2022-09-23T03:16:27.989Z,97487.44
2022-09-23T03:18:59.550Z,97486.38
2022-09-23T03:21:31.686Z,97490.16
2022-09-23T03:24:06.368Z,97481.53
2022-09-23T03:26:37.918Z,97488.53
2022-09-23T03:29:09.562Z,97491.25
2022-09-23T03:31:40.702Z,97491.75
2022-09-23T03:34:19.351Z,97489.38
2022-09-23T03:37:02.560Z,97479.38
2022-09-23T03:39:54.024Z,97487.50
2022-09-23T03:42:27.348Z,97484.81
2022-09-23T03:44:57.314Z,97491.81
2022-09-23T03:47:27.014Z,97485.91
2022-09-23T03:49:54.373Z,97484.53
2022-09-23T03:52:23.494Z,97489.69
2022-09-23T03:54:52.214Z,97488.06
2022-09-23T03:57:22.068Z,97484.28
2022-09-23T03:59:50.759Z,97476.44
2022-09-23T04:02:18.683Z,97476.16
2022-09-23T04:04:45.699Z,97478.03
2022-09-23T04:07:13.224Z,97477.50
2022-09-23T04:09:39.852Z,97474.25
2022-09-23T04:12:07.105Z,97476.16
2022-09-23T04:14:33.862Z,97476.16
2022-09-23T04:17:00.483Z,97476.16
2022-09-23T04:19:27.090Z,97475.63
2022-09-23T04:21:53.850Z,97471.31
2022-09-23T04:24:20.969Z,97477.00
2022-09-23T04:26:52.395Z,97474.03
2022-09-23T04:29:19.792Z,97469.72
2022-09-23T04:31:46.520Z,97468.06
2022-09-23T04:34:13.917Z,97467.25
2022-09-23T04:36:40.856Z,97466.72
2022-09-23T04:39:07.769Z,97468.63
2022-09-23T04:41:34.728Z,97472.94
2022-09-23T04:44:02.119Z,97474.84
2022-09-23T04:46:28.868Z,97484.28
2022-09-23T04:48:55.569Z,97481.84
2022-09-23T04:51:24.881Z,97483.50
2022-09-23T04:53:52.937Z,97484.03
2022-09-23T04:56:22.605Z,97485.94
2022-09-23T04:58:50.641Z,97481.59
2022-09-23T05:01:24.931Z,97479.44
2022-09-23T05:03:57.354Z,97480.50
2022-09-23T05:06:25.407Z,97485.38
2022-09-23T05:08:54.499Z,97480.53
2022-09-23T05:11:21.919Z,97471.34
2022-09-23T05:13:50.830Z,97470.25
2022-09-23T05:16:18.242Z,97473.75
2022-09-23T05:18:46.266Z,97480.50
2022-09-23T05:21:15.142Z,97481.59
2022-09-23T05:23:42.942Z,97479.44
2022-09-23T05:26:13.347Z,97482.16
2022-09-23T05:28:40.510Z,97474.31
2022-09-23T05:31:08.352Z,97488.91
2022-09-23T05:33:36.885Z,97482.69
2022-09-23T05:36:04.803Z,97488.59
2022-09-23T05:38:32.105Z,97486.97
2022-09-23T05:41:01.109Z,97486.97
2022-09-23T05:43:28.607Z,97491.88
2022-09-23T05:46:07.803Z,97498.63
2022-09-23T05:48:36.065Z,97500.25
2022-09-23T05:51:03.530Z,97503.75
2022-09-23T05:53:31.278Z,97499.97
2022-09-23T05:55:58.137Z,97508.59
2022-09-23T05:58:25.370Z,97510.22
2022-09-23T06:00:52.436Z,97509.41
2022-09-23T06:03:20.911Z,97516.72
2022-09-23T06:05:48.514Z,97511.56
2022-09-23T06:08:15.619Z,97509.69
2022-09-23T06:10:44.793Z,97512.94
2022-09-23T06:13:11.613Z,97515.09
2022-09-23T06:15:39.418Z,97514.03
2022-09-23T06:18:07.037Z,97512.38
2022-09-23T06:20:35.517Z,97508.63
2022-09-23T06:23:09.989Z,97518.59
2022-09-23T06:25:38.590Z,97523.47
2022-09-23T06:28:06.901Z,97524.28
2022-09-23T06:30:34.925Z,97524.81
2022-09-23T06:33:01.990Z,97531.31
2022-09-23T06:35:28.818Z,97530.47
2022-09-23T06:37:55.601Z,97527.25
2022-09-23T06:40:23.422Z,97535.34
